ADDS METAR Data INFO
IDs: Format: Raw Decoded Include TAF

Data at: 0834 UTC 22 Jul 2018

METAR for:KSGH (Springfield Muni, OH, US)
Text:KSGH 220756Z AUTO 08003KT 5SM BR 19/19 A2970 RMK AO2 SLP054 T01890189 $
Temperature: 18.9°C ( 66°F)
Dewpoint: 18.9°C ( 66°F) [RH = 100%]
Pressure (altimeter):29.70 inches Hg (1005.8 mb) [Sea level pressure: 1005.4 mb]
Winds:from the E (80 degrees) at 3 MPH (3 knots; 1.5 m/s)
Visibility: 5 sm ( 8 km)
Weather:BR (mist)
QC Flag:automated observation with no human augmentation; SOME DATA ABOVE MAY BE INACCURATE!!!"$" is an indication the sensor requires maintenance.